Golovin Airport

About
Name: Golovin Airport
Identifier:  GLV/PAGL
Serves:  Golovin, Alaska
Owner:  State of Alaska DOT&PF - Northern Region
Public/Private:  Public
Local Time:  22. Aug 21:00 AKDT
Description: Golovin Airport is a state-owned public-use airport located in Golovin, a city in the Nome Census Area of the U.S. state of Alaska.
Source: Wikipedia
Location
Runways
Identifier Length (m/ft) Surface
2/20 4,000/4,000 Gravel
Flights per Day
0 flights
Distance: 35km (22mi)
Punctuality
0% (0 flights per day delayed)
Delay Average: 315 minutes
Current Weather
 16 C (Humidity: 51%)
  11kt (20km/h / 12mph) from 360°
16 knots Gusts

  Broken clouds at 5,000 feet (1,524 meter)
  16km (10 mi.)
 METAR PAGL 230356Z AUTO 36011G16KT 10SM BKN050 16/06 A2972 RMK AO2 SLP061 T01560056

Current Flights

Departures
Number Departure To Airline
Arrivals
Number Arrival From Airline

Current Delays

Departures
N/A
Arrivals
N/A

Destinations

Top Destinations
Airport Flights
per week
Seats
per week
  Nome (OME) 0 - 0 0
  Unalakleet (UNK) 0 - 0 0
  Koyuk (KKA) 0 - 0 0
  Elim (ELI) 0 - 0 0

Airlines & Planes

Top Airlines
Airline Flights
per Day
Seats
per Day
Bering Air 0 -
Top Plane Types
Model Flights Seats
Piper PA-31-350 0.1/day - 0
Beech B200 Super King Air 0.0/day - 0
Cessna C208 0.0/day - 0